createdAt,value
2019-01-25T00:00:52.015Z,75.29
2019-01-25T00:03:17.942Z,75.26
2019-01-25T00:05:43.942Z,75.40
2019-01-25T00:08:10.468Z,75.52
2019-01-25T00:10:36.398Z,75.60
2019-01-25T00:13:02.827Z,75.78
2019-01-25T00:15:28.788Z,75.84
2019-01-25T00:17:54.819Z,75.84
2019-01-25T00:20:20.740Z,75.96
2019-01-25T00:22:46.702Z,76.10
2019-01-25T00:25:13.642Z,76.19
2019-01-25T00:27:40.079Z,76.28
2019-01-25T00:30:12.135Z,76.33
2019-01-25T00:32:38.140Z,76.32
2019-01-25T00:35:06.657Z,76.34
2019-01-25T00:37:32.719Z,76.50
2019-01-25T00:40:05.977Z,77.04
2019-01-25T00:42:27.201Z,76.52
2019-01-25T00:44:53.168Z,76.18
2019-01-25T00:47:19.102Z,76.09
2019-01-25T00:49:45.223Z,76.08
2019-01-25T00:52:11.371Z,76.01
2019-01-25T00:54:37.708Z,75.89
2019-01-25T00:57:03.640Z,75.83
2019-01-25T00:59:29.602Z,75.92
2019-01-25T01:01:55.526Z,75.93
2019-01-25T01:04:21.452Z,75.97
2019-01-25T01:06:47.399Z,75.86
2019-01-25T01:09:13.364Z,75.92
2019-01-25T01:11:39.251Z,75.95
2019-01-25T01:14:05.451Z,76.02
2019-01-25T01:16:31.882Z,76.06
2019-01-25T01:18:59.720Z,76.08
2019-01-25T01:21:25.682Z,75.97
2019-01-25T01:23:51.606Z,75.84
2019-01-25T01:26:18.638Z,75.95
2019-01-25T01:28:44.605Z,75.97
2019-01-25T01:31:10.526Z,76.05
2019-01-25T01:33:36.512Z,76.12
2019-01-25T01:36:03.584Z,76.17
2019-01-25T01:38:29.518Z,76.21
2019-01-25T01:40:55.443Z,76.26
2019-01-25T01:43:21.503Z,76.30
2019-01-25T01:45:47.511Z,76.34
2019-01-25T01:48:13.666Z,76.35
2019-01-25T01:50:40.619Z,76.35
2019-01-25T01:53:06.551Z,76.35
2019-01-25T01:55:32.472Z,76.24
2019-01-25T01:57:58.479Z,76.28
2019-01-25T02:00:25.121Z,76.27
2019-01-25T02:02:51.647Z,76.22
2019-01-25T02:05:17.907Z,76.24
2019-01-25T02:07:44.137Z,76.21
2019-01-25T02:10:13.671Z,76.25
2019-01-25T02:12:39.638Z,76.27
2019-01-25T02:15:08.174Z,76.32
2019-01-25T02:17:34.097Z,76.36
2019-01-25T02:20:00.117Z,76.34
2019-01-25T02:22:26.105Z,76.34
2019-01-25T02:24:52.227Z,76.34
2019-01-25T02:27:18.216Z,76.32
2019-01-25T02:29:44.135Z,76.31
2019-01-25T02:32:10.065Z,76.40
2019-01-25T02:34:36.094Z,76.48
2019-01-25T02:37:02.319Z,76.51
2019-01-25T02:39:28.240Z,76.52
2019-01-25T02:41:55.007Z,76.43
2019-01-25T02:44:20.943Z,76.35
2019-01-25T02:46:46.863Z,76.25
2019-01-25T02:49:12.824Z,76.24
2019-01-25T02:51:38.753Z,76.08
2019-01-25T02:54:05.588Z,75.95
2019-01-25T02:56:31.541Z,75.85
2019-01-25T02:58:57.472Z,75.77
2019-01-25T03:01:23.392Z,75.81
2019-01-25T03:03:49.380Z,75.59
2019-01-25T03:06:15.312Z,75.61
2019-01-25T03:08:41.227Z,75.69
2019-01-25T03:11:08.686Z,75.85
2019-01-25T03:13:34.615Z,76.03
2019-01-25T03:16:00.539Z,75.95
2019-01-25T03:18:26.502Z,76.04
2019-01-25T03:20:52.726Z,76.37
2019-01-25T03:23:19.585Z,76.39
2019-01-25T03:25:46.072Z,76.17
2019-01-25T03:28:11.993Z,76.12
2019-01-25T03:30:37.921Z,76.07
2019-01-25T03:33:04.231Z,76.27
2019-01-25T03:35:30.409Z,76.21
2019-01-25T03:37:56.833Z,76.17
2019-01-25T03:40:24.801Z,76.13
2019-01-25T03:42:50.722Z,76.10
2019-01-25T03:45:17.242Z,76.08
2019-01-25T03:47:43.235Z,76.08
2019-01-25T03:50:21.248Z,76.08
2019-01-25T03:52:47.410Z,76.15
2019-01-25T03:55:14.339Z,76.27
2019-01-25T03:57:40.287Z,76.15
2019-01-25T04:00:15.632Z,76.06
2019-01-25T04:02:41.997Z,76.02
2019-01-25T04:05:10.717Z,75.92
2019-01-25T04:07:37.307Z,75.89
2019-01-25T04:10:07.045Z,75.97
2019-01-25T04:12:33.674Z,76.01
2019-01-25T04:14:59.636Z,75.93
2019-01-25T04:17:25.862Z,75.91
2019-01-25T04:19:51.788Z,76.02
2019-01-25T04:22:18.758Z,76.06
2019-01-25T04:24:44.678Z,76.00
2019-01-25T04:27:10.605Z,76.03
2019-01-25T04:29:36.594Z,76.01
2019-01-25T04:32:04.856Z,76.04
2019-01-25T04:34:30.787Z,75.96
2019-01-25T04:36:57.675Z,75.99
2019-01-25T04:39:23.600Z,75.73
2019-01-25T04:41:51.031Z,75.54
2019-01-25T04:44:17.014Z,75.43
2019-01-25T04:46:42.944Z,75.32
2019-01-25T04:49:08.930Z,75.12
2019-01-25T04:51:34.957Z,74.93
2019-01-25T04:54:00.880Z,74.73
2019-01-25T04:56:28.712Z,74.77
2019-01-25T04:58:55.002Z,74.88
2019-01-25T05:01:20.936Z,74.83
2019-01-25T05:03:46.871Z,74.62
2019-01-25T05:06:15.140Z,74.40
2019-01-25T05:08:41.094Z,74.17
2019-01-25T05:11:19.912Z,73.85
2019-01-25T05:13:43.507Z,73.66
2019-01-25T05:16:12.248Z,73.42
2019-01-25T05:18:38.247Z,73.37
2019-01-25T05:21:05.861Z,73.30
2019-01-25T05:23:31.783Z,73.19
2019-01-25T05:25:57.710Z,73.09
2019-01-25T05:28:23.670Z,73.12
2019-01-25T05:30:55.143Z,73.13
2019-01-25T05:33:21.078Z,73.03
2019-01-25T05:35:47.261Z,72.95
2019-01-25T05:38:13.368Z,72.87
2019-01-25T05:40:39.304Z,72.85
2019-01-25T05:43:05.265Z,72.74
2019-01-25T05:45:31.201Z,72.72
2019-01-25T05:47:57.126Z,72.69
2019-01-25T05:50:23.071Z,72.76
2019-01-25T05:52:49.217Z,72.75
2019-01-25T05:55:17.565Z,72.63
2019-01-25T05:57:44.262Z,72.67
2019-01-25T06:00:11.191Z,72.81
2019-01-25T06:02:37.336Z,72.80
2019-01-25T06:05:05.159Z,72.82
2019-01-25T06:07:31.089Z,72.95
2019-01-25T06:09:57.011Z,73.02
2019-01-25T06:12:22.973Z,73.07
2019-01-25T06:14:49.121Z,73.08
2019-01-25T06:17:15.044Z,73.07
2019-01-25T06:19:41.059Z,73.18
2019-01-25T06:22:07.102Z,73.24
2019-01-25T06:24:33.046Z,73.19
2019-01-25T06:27:00.036Z,73.14
2019-01-25T06:29:29.375Z,73.15
2019-01-25T06:31:55.330Z,73.13
2019-01-25T06:34:21.694Z,73.14
2019-01-25T06:36:47.618Z,73.09
2019-01-25T06:39:13.623Z,73.07
2019-01-25T06:41:44.045Z,73.17
2019-01-25T06:44:07.470Z,73.26
2019-01-25T06:46:35.016Z,73.48
2019-01-25T06:49:00.987Z,73.50
2019-01-25T06:51:27.152Z,73.54
2019-01-25T06:53:53.395Z,73.54
2019-01-25T06:56:20.123Z,73.52
2019-01-25T06:58:48.035Z,73.49
2019-01-25T07:01:15.963Z,73.94
2019-01-25T07:03:42.140Z,74.14
2019-01-25T07:06:08.375Z,73.74
2019-01-25T07:08:35.208Z,73.51
2019-01-25T07:11:01.235Z,73.20
2019-01-25T07:13:27.308Z,73.01
2019-01-25T07:15:53.188Z,72.99
2019-01-25T07:18:19.147Z,72.87
2019-01-25T07:20:45.178Z,72.70
2019-01-25T07:23:11.408Z,72.63
2019-01-25T07:25:37.489Z,72.31
2019-01-25T07:28:03.552Z,72.09
2019-01-25T07:30:32.212Z,71.88
2019-01-25T07:32:58.488Z,71.67
2019-01-25T07:35:24.396Z,71.45
2019-01-25T07:37:50.324Z,71.34
2019-01-25T07:40:17.317Z,71.12
2019-01-25T07:42:43.309Z,70.99
2019-01-25T07:45:11.013Z,70.71
2019-01-25T07:47:37.730Z,70.47
2019-01-25T07:50:09.875Z,70.58
2019-01-25T07:52:35.942Z,70.43
2019-01-25T07:55:02.928Z,70.54
2019-01-25T07:57:28.889Z,70.40
2019-01-25T07:59:54.904Z,70.41
2019-01-25T08:02:20.903Z,70.44
2019-01-25T08:04:48.005Z,70.43
2019-01-25T08:07:14.193Z,70.37
2019-01-25T08:09:40.146Z,70.30
2019-01-25T08:12:07.504Z,70.21
2019-01-25T08:14:34.096Z,70.22
2019-01-25T08:17:00.053Z,70.03
2019-01-25T08:19:26.459Z,69.68
2019-01-25T08:21:52.410Z,69.44
2019-01-25T08:24:18.426Z,69.42
2019-01-25T08:26:44.417Z,69.36
2019-01-25T08:29:10.540Z,69.22
2019-01-25T08:31:36.754Z,68.82
2019-01-25T08:34:03.171Z,68.73
2019-01-25T08:36:29.383Z,68.58
2019-01-25T08:38:55.993Z,68.75
2019-01-25T08:41:22.842Z,68.57
2019-01-25T08:43:48.842Z,68.22
2019-01-25T08:46:14.821Z,68.17
2019-01-25T08:48:40.730Z,67.97
2019-01-25T08:51:06.649Z,67.64
2019-01-25T08:53:32.711Z,67.42
2019-01-25T08:55:58.685Z,67.40
2019-01-25T08:58:24.644Z,67.41
2019-01-25T09:00:51.846Z,67.44
2019-01-25T09:03:18.004Z,67.34
2019-01-25T09:05:44.227Z,67.32
2019-01-25T09:08:10.305Z,67.33
2019-01-25T09:10:36.234Z,67.18
2019-01-25T09:13:02.159Z,67.08
2019-01-25T09:15:30.650Z,66.92
2019-01-25T09:17:56.588Z,66.88
2019-01-25T09:20:22.711Z,66.80
2019-01-25T09:22:48.669Z,66.74
2019-01-25T09:25:15.595Z,66.55
2019-01-25T09:27:41.541Z,66.38
2019-01-25T09:30:11.009Z,66.21
2019-01-25T09:32:37.242Z,65.76
2019-01-25T09:35:04.075Z,65.71
2019-01-25T09:37:30.152Z,65.51
2019-01-25T09:39:56.119Z,65.37
2019-01-25T09:42:22.111Z,65.19
2019-01-25T09:44:48.282Z,65.35
2019-01-25T09:47:14.212Z,65.58
2019-01-25T09:49:42.062Z,65.14
2019-01-25T09:52:08.228Z,64.93
2019-01-25T09:54:34.177Z,64.62
2019-01-25T09:57:01.317Z,64.82
2019-01-25T09:59:27.316Z,64.63
2019-01-25T10:01:53.244Z,64.63
2019-01-25T10:04:19.268Z,64.57
2019-01-25T10:06:46.429Z,64.27
2019-01-25T10:09:12.431Z,64.53
2019-01-25T10:11:38.408Z,64.54
2019-01-25T10:14:04.679Z,64.43
2019-01-25T10:16:31.419Z,64.39
2019-01-25T10:18:59.285Z,64.25
2019-01-25T10:21:25.272Z,64.32
2019-01-25T10:23:51.212Z,64.30
2019-01-25T10:26:17.139Z,64.38
2019-01-25T10:28:43.093Z,64.42
2019-01-25T10:31:09.431Z,64.51
2019-01-25T10:33:35.616Z,64.38
2019-01-25T10:36:02.693Z,64.85
2019-01-25T10:38:28.637Z,64.85
2019-01-25T10:40:54.562Z,64.74
2019-01-25T10:43:20.861Z,64.87
2019-01-25T10:45:47.278Z,64.66
2019-01-25T10:48:13.321Z,64.64
2019-01-25T10:50:40.163Z,64.58
2019-01-25T10:53:09.832Z,64.88
2019-01-25T10:55:35.902Z,64.98
2019-01-25T10:58:03.195Z,64.75
2019-01-25T11:00:29.405Z,64.88
2019-01-25T11:02:58.413Z,65.20
2019-01-25T11:05:27.245Z,65.37
2019-01-25T11:07:53.198Z,65.38
2019-01-25T11:10:19.120Z,65.33
2019-01-25T11:12:45.590Z,65.69
2019-01-25T11:15:14.843Z,65.83
2019-01-25T11:17:41.743Z,65.56
2019-01-25T11:20:11.062Z,65.17
2019-01-25T11:22:36.986Z,64.57
2019-01-25T11:25:06.712Z,64.40
2019-01-25T11:27:32.917Z,64.26
2019-01-25T11:30:11.767Z,64.20
2019-01-25T11:32:37.723Z,64.21
2019-01-25T11:35:04.768Z,63.74
2019-01-25T11:37:31.209Z,63.65
2019-01-25T11:39:57.184Z,63.20
2019-01-25T11:42:24.008Z,62.48
2019-01-25T11:44:50.196Z,62.36
2019-01-25T11:47:19.242Z,62.21
2019-01-25T11:49:45.473Z,62.50
2019-01-25T11:52:11.461Z,62.28
2019-01-25T11:54:37.445Z,62.06
2019-01-25T11:57:03.399Z,61.25
2019-01-25T11:59:30.324Z,61.14
2019-01-25T12:01:56.593Z,60.81
2019-01-25T12:04:22.533Z,60.34
2019-01-25T12:06:48.467Z,59.63
2019-01-25T12:09:14.460Z,59.59
2019-01-25T12:11:40.595Z,59.86
2019-01-25T12:14:06.524Z,59.55
2019-01-25T12:16:32.712Z,59.32
2019-01-25T12:18:59.060Z,59.65
2019-01-25T12:21:25.003Z,59.72
2019-01-25T12:23:51.071Z,59.69
2019-01-25T12:26:17.010Z,59.85
2019-01-25T12:28:44.630Z,59.77
2019-01-25T12:31:10.618Z,59.34
2019-01-25T12:33:36.549Z,60.00
2019-01-25T12:36:02.702Z,59.52
2019-01-25T12:38:28.651Z,59.60
2019-01-25T12:40:55.007Z,59.22
2019-01-25T12:43:24.198Z,59.17
2019-01-25T12:45:52.828Z,59.20
2019-01-25T12:48:18.755Z,59.89
2019-01-25T12:50:49.170Z,59.77
2019-01-25T12:53:15.502Z,59.59
2019-01-25T12:55:41.520Z,59.59
2019-01-25T12:58:07.885Z,59.56
2019-01-25T13:00:34.401Z,59.42
2019-01-25T13:03:00.333Z,59.39
2019-01-25T13:05:26.587Z,59.32
2019-01-25T13:07:52.549Z,59.38
2019-01-25T13:10:21.318Z,59.53
2019-01-25T13:12:47.452Z,59.39
2019-01-25T13:15:13.642Z,59.53
2019-01-25T13:17:39.693Z,59.25
2019-01-25T13:20:09.427Z,59.39
2019-01-25T13:22:35.776Z,59.40
2019-01-25T13:25:01.705Z,59.40
2019-01-25T13:27:27.643Z,59.52
2019-01-25T13:29:53.604Z,59.80
2019-01-25T13:32:19.532Z,59.93
2019-01-25T13:34:45.671Z,60.07
2019-01-25T13:37:11.675Z,60.13
2019-01-25T13:39:37.921Z,60.15
2019-01-25T13:42:03.865Z,60.08
2019-01-25T13:44:30.394Z,59.84
2019-01-25T13:46:56.513Z,60.23
2019-01-25T13:49:22.487Z,60.33
2019-01-25T13:51:48.472Z,60.27
2019-01-25T13:54:14.393Z,60.68
2019-01-25T13:56:40.736Z,60.88
2019-01-25T13:59:07.848Z,60.81
2019-01-25T14:01:34.676Z,60.62
2019-01-25T14:04:00.925Z,60.77
2019-01-25T14:06:26.888Z,60.97
2019-01-25T14:08:52.832Z,61.16
2019-01-25T14:11:18.768Z,61.57
2019-01-25T14:13:46.911Z,61.87
2019-01-25T14:16:12.591Z,61.87
2019-01-25T14:18:38.521Z,61.77
2019-01-25T14:21:04.523Z,61.74
2019-01-25T14:23:30.458Z,61.83
2019-01-25T14:25:56.442Z,61.88
2019-01-25T14:28:22.412Z,62.10
2019-01-25T14:30:49.060Z,62.46
2019-01-25T14:33:15.098Z,62.88
2019-01-25T14:35:41.900Z,63.31
2019-01-25T14:38:08.032Z,63.61
2019-01-25T14:40:34.363Z,63.82
2019-01-25T14:43:00.376Z,64.09
2019-01-25T14:45:26.607Z,64.58
2019-01-25T14:47:53.511Z,65.04
2019-01-25T14:50:28.782Z,65.30
2019-01-25T14:52:54.717Z,65.49
2019-01-25T14:55:20.644Z,65.72
2019-01-25T14:57:46.608Z,65.76
2019-01-25T15:00:14.349Z,65.75
2019-01-25T15:02:40.295Z,65.69
2019-01-25T15:05:12.530Z,65.17
2019-01-25T15:07:38.477Z,65.09
2019-01-25T15:10:08.210Z,65.36
2019-01-25T15:12:34.363Z,65.56
2019-01-25T15:15:00.603Z,65.40
2019-01-25T15:17:26.523Z,65.34
2019-01-25T15:19:52.504Z,65.30
2019-01-25T15:22:18.635Z,65.25
2019-01-25T15:24:44.878Z,65.38
2019-01-25T15:27:11.768Z,65.26
2019-01-25T15:29:37.688Z,65.27
2019-01-25T15:32:03.814Z,65.17
2019-01-25T15:34:29.903Z,65.26
2019-01-25T15:36:55.840Z,65.42
2019-01-25T15:39:21.770Z,65.68
2019-01-25T15:41:48.211Z,65.68
2019-01-25T15:44:14.482Z,65.44
2019-01-25T15:46:40.434Z,65.71
2019-01-25T15:49:07.167Z,65.88
2019-01-25T15:51:33.521Z,65.77
2019-01-25T15:53:59.424Z,65.80
2019-01-25T15:56:25.379Z,65.65
2019-01-25T15:58:51.307Z,65.87
2019-01-25T16:01:17.743Z,65.85
2019-01-25T16:03:44.027Z,65.96
2019-01-25T16:06:10.377Z,66.04
2019-01-25T16:08:36.309Z,66.37
2019-01-25T16:11:03.341Z,66.19
2019-01-25T16:13:29.598Z,66.05
2019-01-25T16:15:55.598Z,66.01
2019-01-25T16:18:21.691Z,66.03
2019-01-25T16:20:48.256Z,66.11
2019-01-25T16:23:14.189Z,66.51
2019-01-25T16:25:40.152Z,66.54
2019-01-25T16:28:06.126Z,66.58
2019-01-25T16:30:33.956Z,66.54
2019-01-25T16:33:00.299Z,66.49
2019-01-25T16:35:29.342Z,66.54
2019-01-25T16:37:55.827Z,66.54
2019-01-25T16:40:25.224Z,66.72
2019-01-25T16:42:51.165Z,66.71
2019-01-25T16:45:22.849Z,66.76
2019-01-25T16:47:53.645Z,66.61
2019-01-25T16:50:23.794Z,66.87
2019-01-25T16:52:54.816Z,66.72
2019-01-25T16:55:23.314Z,66.90
2019-01-25T16:57:49.550Z,67.18
2019-01-25T17:00:21.476Z,67.16
2019-01-25T17:02:47.659Z,67.19
2019-01-25T17:05:14.019Z,67.60
2019-01-25T17:07:39.947Z,67.57
2019-01-25T17:10:13.720Z,67.52
2019-01-25T17:12:44.238Z,67.54
2019-01-25T17:15:13.923Z,67.71
2019-01-25T17:17:39.942Z,67.70
2019-01-25T17:20:08.989Z,67.65
2019-01-25T17:22:34.917Z,67.59
2019-01-25T17:25:00.889Z,67.61
2019-01-25T17:27:26.827Z,67.46
2019-01-25T17:29:52.763Z,67.75
2019-01-25T17:32:19.039Z,67.84
2019-01-25T17:34:44.992Z,68.08
2019-01-25T17:37:11.131Z,68.14
2019-01-25T17:39:37.276Z,68.16
2019-01-25T17:42:03.723Z,68.22
2019-01-25T17:44:29.671Z,68.21
2019-01-25T17:46:55.674Z,68.28
2019-01-25T17:49:21.964Z,68.27
2019-01-25T17:51:47.961Z,68.23
2019-01-25T17:54:13.917Z,68.46
2019-01-25T17:56:44.660Z,68.50
2019-01-25T17:59:10.610Z,68.64
2019-01-25T18:01:36.597Z,68.84
2019-01-25T18:04:04.273Z,69.07
2019-01-25T18:06:30.440Z,69.51
2019-01-25T18:08:56.741Z,69.67
2019-01-25T18:11:23.784Z,69.67
2019-01-25T18:13:51.031Z,69.92
2019-01-25T18:16:17.236Z,69.97
2019-01-25T18:18:43.194Z,70.24
2019-01-25T18:21:10.010Z,70.37
2019-01-25T18:23:36.025Z,70.53
2019-01-25T18:26:02.056Z,70.86
2019-01-25T18:28:31.809Z,70.99
2019-01-25T18:31:04.647Z,70.99
2019-01-25T18:33:30.592Z,71.03
2019-01-25T18:35:56.534Z,71.16
2019-01-25T18:38:22.621Z,71.39
2019-01-25T18:40:48.581Z,71.32
2019-01-25T18:43:15.216Z,71.71
2019-01-25T18:45:42.435Z,72.09
2019-01-25T18:48:08.373Z,72.26
2019-01-25T18:50:34.433Z,72.05
2019-01-25T18:53:00.746Z,72.04
2019-01-25T18:55:26.724Z,72.08
2019-01-25T18:57:52.671Z,71.87
2019-01-25T19:00:21.324Z,71.86
2019-01-25T19:02:47.285Z,71.93
2019-01-25T19:05:15.424Z,72.07
2019-01-25T19:07:42.469Z,71.74
2019-01-25T19:10:26.287Z,71.75
2019-01-25T19:12:52.261Z,72.01
2019-01-25T19:15:22.208Z,72.00
2019-01-25T19:17:48.258Z,71.78
2019-01-25T19:20:15.194Z,72.17
2019-01-25T19:22:41.130Z,72.29
2019-01-25T19:25:09.593Z,72.23
2019-01-25T19:27:35.600Z,72.18
2019-01-25T19:30:04.754Z,71.92
2019-01-25T19:32:30.711Z,71.82
2019-01-25T19:34:56.754Z,71.67
2019-01-25T19:37:24.495Z,71.63
2019-01-25T19:39:50.759Z,71.69
2019-01-25T19:42:16.780Z,71.66
2019-01-25T19:44:42.714Z,71.61
2019-01-25T19:47:08.646Z,71.21
2019-01-25T19:49:39.620Z,71.26
2019-01-25T19:52:05.793Z,71.40
2019-01-25T19:54:32.029Z,71.49
2019-01-25T19:56:58.602Z,71.37
2019-01-25T19:59:26.788Z,71.49
2019-01-25T20:01:52.934Z,71.55
2019-01-25T20:04:18.990Z,71.60
2019-01-25T20:06:45.042Z,71.56
2019-01-25T20:09:11.059Z,71.64
2019-01-25T20:11:37.808Z,71.76
2019-01-25T20:14:06.626Z,71.68
2019-01-25T20:16:37.290Z,71.80
2019-01-25T20:19:03.640Z,71.77
2019-01-25T20:21:29.982Z,71.79
2019-01-25T20:23:57.058Z,71.92
2019-01-25T20:26:23.420Z,72.01
2019-01-25T20:28:49.463Z,71.98
2019-01-25T20:31:15.499Z,72.23
2019-01-25T20:33:41.658Z,72.28
2019-01-25T20:36:08.681Z,72.11
2019-01-25T20:38:45.265Z,71.92
2019-01-25T20:41:11.290Z,71.88
2019-01-25T20:43:37.228Z,71.95
2019-01-25T20:46:06.284Z,71.94
2019-01-25T20:48:32.384Z,72.04
2019-01-25T20:50:58.308Z,72.12
2019-01-25T20:53:24.669Z,72.51
2019-01-25T20:55:54.433Z,72.50
2019-01-25T20:58:20.378Z,72.68
2019-01-25T21:00:46.425Z,72.77
2019-01-25T21:03:14.004Z,72.82
2019-01-25T21:05:40.273Z,72.86
2019-01-25T21:08:06.217Z,73.04
2019-01-25T21:10:32.205Z,73.15
2019-01-25T21:12:58.276Z,73.43
2019-01-25T21:15:26.120Z,73.65
2019-01-25T21:17:52.649Z,73.62
2019-01-25T21:20:27.392Z,73.63
2019-01-25T21:22:53.333Z,73.68
2019-01-25T21:25:19.427Z,74.16
2019-01-25T21:27:45.397Z,74.09
2019-01-25T21:30:17.566Z,74.23
2019-01-25T21:32:43.732Z,74.31
2019-01-25T21:35:09.968Z,74.42
2019-01-25T21:37:36.214Z,74.68
2019-01-25T21:40:08.556Z,75.00
2019-01-25T21:42:33.846Z,74.91
2019-01-25T21:44:59.847Z,74.83
2019-01-25T21:47:25.824Z,74.97
2019-01-25T21:49:54.798Z,75.33
2019-01-25T21:52:22.640Z,75.57
2019-01-25T21:54:50.045Z,75.58
2019-01-25T21:57:16.050Z,75.51
2019-01-25T21:59:41.998Z,75.68
2019-01-25T22:02:08.269Z,75.67
2019-01-25T22:04:34.405Z,75.88
2019-01-25T22:07:02.394Z,75.73
2019-01-25T22:09:28.405Z,76.18
2019-01-25T22:11:54.389Z,76.18
2019-01-25T22:14:20.413Z,76.03
2019-01-25T22:16:46.516Z,75.96
2019-01-25T22:19:12.459Z,75.98
2019-01-25T22:21:38.525Z,76.26
2019-01-25T22:24:04.660Z,76.28
2019-01-25T22:26:32.130Z,76.65
2019-01-25T22:28:58.125Z,76.54
2019-01-25T22:31:24.086Z,76.47
2019-01-25T22:33:50.089Z,76.29
2019-01-25T22:36:16.204Z,76.58
2019-01-25T22:38:42.517Z,77.00
2019-01-25T22:41:08.456Z,76.97
2019-01-25T22:43:34.499Z,76.63
2019-01-25T22:46:13.100Z,76.67
2019-01-25T22:48:39.042Z,76.70
2019-01-25T22:51:05.206Z,76.84
2019-01-25T22:53:31.204Z,76.97
2019-01-25T22:55:57.131Z,76.97
2019-01-25T22:58:26.919Z,77.02
2019-01-25T23:01:06.413Z,77.12
2019-01-25T23:03:40.043Z,77.11
2019-01-25T23:06:33.625Z,77.10
2019-01-25T23:09:05.176Z,76.96
2019-01-25T23:11:35.797Z,77.18
2019-01-25T23:14:16.306Z,77.02
2019-01-25T23:16:47.299Z,76.78
2019-01-25T23:19:14.982Z,76.90
2019-01-25T23:21:41.312Z,76.91
2019-01-25T23:24:10.263Z,76.84
2019-01-25T23:26:42.560Z,77.04
2019-01-25T23:29:08.617Z,77.00
2019-01-25T23:31:38.693Z,76.86
2019-01-25T23:34:08.030Z,76.66
2019-01-25T23:36:35.420Z,76.84
2019-01-25T23:39:06.043Z,76.83
2019-01-25T23:41:33.672Z,76.96
2019-01-25T23:43:59.616Z,77.34
2019-01-25T23:46:30.803Z,77.16
2019-01-25T23:48:56.766Z,77.26
2019-01-25T23:51:27.664Z,77.03
2019-01-25T23:53:57.509Z,77.33
2019-01-25T23:56:28.038Z,77.35
2019-01-25T23:58:55.549Z,77.42
